sensor_id;sensor_type;location;lat;lon;timestamp;temperature;humidity
84298;DHT22;74466;51.188;3.242;2024-01-16T00:02:12;3.60;72.60
84298;DHT22;74466;51.188;3.242;2024-01-16T00:04:38;3.60;72.70
84298;DHT22;74466;51.188;3.242;2024-01-16T00:07:05;3.60;73.00
84298;DHT22;74466;51.188;3.242;2024-01-16T00:09:33;3.50;72.90
84298;DHT22;74466;51.188;3.242;2024-01-16T00:11:59;3.50;72.50
84298;DHT22;74466;51.188;3.242;2024-01-16T00:14:26;3.40;72.90
84298;DHT22;74466;51.188;3.242;2024-01-16T00:16:51;3.30;73.30
84298;DHT22;74466;51.188;3.242;2024-01-16T00:19:17;3.30;73.40
84298;DHT22;74466;51.188;3.242;2024-01-16T00:21:44;3.30;73.50
84298;DHT22;74466;51.188;3.242;2024-01-16T00:24:14;3.20;73.90
84298;DHT22;74466;51.188;3.242;2024-01-16T00:26:40;3.20;74.00
84298;DHT22;74466;51.188;3.242;2024-01-16T00:29:05;3.20;73.60
84298;DHT22;74466;51.188;3.242;2024-01-16T00:31:31;3.30;73.50
84298;DHT22;74466;51.188;3.242;2024-01-16T00:33:57;3.20;73.80
84298;DHT22;74466;51.188;3.242;2024-01-16T00:36:23;3.10;73.90
84298;DHT22;74466;51.188;3.242;2024-01-16T00:38:49;3.00;73.80
84298;DHT22;74466;51.188;3.242;2024-01-16T00:41:15;3.10;74.00
84298;DHT22;74466;51.188;3.242;2024-01-16T00:43:44;3.00;73.90
84298;DHT22;74466;51.188;3.242;2024-01-16T00:46:10;3.00;74.10
84298;DHT22;74466;51.188;3.242;2024-01-16T00:48:36;3.00;74.50
84298;DHT22;74466;51.188;3.242;2024-01-16T00:51:01;2.80;75.00
84298;DHT22;74466;51.188;3.242;2024-01-16T00:53:27;2.90;75.10
84298;DHT22;74466;51.188;3.242;2024-01-16T00:55:53;2.90;75.10
84298;DHT22;74466;51.188;3.242;2024-01-16T00:58:22;2.90;75.50
84298;DHT22;74466;51.188;3.242;2024-01-16T01:00:48;2.90;75.20
84298;DHT22;74466;51.188;3.242;2024-01-16T01:03:13;3.00;74.90
84298;DHT22;74466;51.188;3.242;2024-01-16T01:05:39;3.00;75.00
84298;DHT22;74466;51.188;3.242;2024-01-16T01:08:05;2.90;75.10
84298;DHT22;74466;51.188;3.242;2024-01-16T01:10:31;2.80;75.30
84298;DHT22;74466;51.188;3.242;2024-01-16T01:12:57;2.90;75.70
84298;DHT22;74466;51.188;3.242;2024-01-16T01:15:22;2.80;76.00
84298;DHT22;74466;51.188;3.242;2024-01-16T01:17:49;2.80;76.40
84298;DHT22;74466;51.188;3.242;2024-01-16T01:20:15;2.70;76.70
84298;DHT22;74466;51.188;3.242;2024-01-16T01:22:42;2.60;77.10
84298;DHT22;74466;51.188;3.242;2024-01-16T01:25:09;2.50;77.60
84298;DHT22;74466;51.188;3.242;2024-01-16T01:27:36;2.60;78.20
84298;DHT22;74466;51.188;3.242;2024-01-16T01:30:01;2.50;78.20
84298;DHT22;74466;51.188;3.242;2024-01-16T01:32:27;2.50;78.30
84298;DHT22;74466;51.188;3.242;2024-01-16T01:34:53;2.40;78.60
84298;DHT22;74466;51.188;3.242;2024-01-16T01:37:19;2.40;78.80
84298;DHT22;74466;51.188;3.242;2024-01-16T01:39:44;2.50;78.90
84298;DHT22;74466;51.188;3.242;2024-01-16T01:42:10;2.50;79.00
84298;DHT22;74466;51.188;3.242;2024-01-16T01:44:36;2.30;79.10
84298;DHT22;74466;51.188;3.242;2024-01-16T01:47:02;2.30;79.50
84298;DHT22;74466;51.188;3.242;2024-01-16T01:49:28;2.20;79.50
84298;DHT22;74466;51.188;3.242;2024-01-16T01:51:54;2.20;79.80
84298;DHT22;74466;51.188;3.242;2024-01-16T01:54:21;2.20;80.20
84298;DHT22;74466;51.188;3.242;2024-01-16T01:56:49;2.20;80.00
84298;DHT22;74466;51.188;3.242;2024-01-16T01:59:17;2.20;80.00
84298;DHT22;74466;51.188;3.242;2024-01-16T02:01:45;2.00;80.50
84298;DHT22;74466;51.188;3.242;2024-01-16T02:04:14;2.10;80.80
84298;DHT22;74466;51.188;3.242;2024-01-16T02:06:41;2.00;80.60
84298;DHT22;74466;51.188;3.242;2024-01-16T02:09:07;1.90;80.90
84298;DHT22;74466;51.188;3.242;2024-01-16T02:11:33;1.90;81.20
84298;DHT22;74466;51.188;3.242;2024-01-16T02:13:59;1.80;81.10
84298;DHT22;74466;51.188;3.242;2024-01-16T02:16:24;1.70;81.30
84298;DHT22;74466;51.188;3.242;2024-01-16T02:18:51;1.80;81.50
84298;DHT22;74466;51.188;3.242;2024-01-16T02:21:21;1.70;81.50
84298;DHT22;74466;51.188;3.242;2024-01-16T02:23:47;1.70;81.70
84298;DHT22;74466;51.188;3.242;2024-01-16T02:26:17;1.70;82.10
84298;DHT22;74466;51.188;3.242;2024-01-16T02:28:43;1.60;82.10
84298;DHT22;74466;51.188;3.242;2024-01-16T02:31:08;1.60;83.00
84298;DHT22;74466;51.188;3.242;2024-01-16T02:33:34;1.70;82.00
84298;DHT22;74466;51.188;3.242;2024-01-16T02:36:00;1.70;82.00
84298;DHT22;74466;51.188;3.242;2024-01-16T02:38:26;1.80;81.70
84298;DHT22;74466;51.188;3.242;2024-01-16T02:40:52;1.80;81.60
84298;DHT22;74466;51.188;3.242;2024-01-16T02:43:17;1.70;83.00
84298;DHT22;74466;51.188;3.242;2024-01-16T02:45:43;1.70;81.40
84298;DHT22;74466;51.188;3.242;2024-01-16T02:48:09;1.60;81.80
84298;DHT22;74466;51.188;3.242;2024-01-16T02:50:35;1.60;82.10
84298;DHT22;74466;51.188;3.242;2024-01-16T02:53:00;1.60;81.90
84298;DHT22;74466;51.188;3.242;2024-01-16T02:55:26;1.70;82.30
84298;DHT22;74466;51.188;3.242;2024-01-16T02:57:52;1.60;82.10
84298;DHT22;74466;51.188;3.242;2024-01-16T03:00:18;1.60;82.10
84298;DHT22;74466;51.188;3.242;2024-01-16T03:02:44;1.60;82.30
84298;DHT22;74466;51.188;3.242;2024-01-16T03:05:10;1.60;82.00
84298;DHT22;74466;51.188;3.242;2024-01-16T03:07:36;1.50;81.40
84298;DHT22;74466;51.188;3.242;2024-01-16T03:10:03;1.50;82.00
84298;DHT22;74466;51.188;3.242;2024-01-16T03:12:28;1.60;81.70
84298;DHT22;74466;51.188;3.242;2024-01-16T03:14:54;1.70;81.80
84298;DHT22;74466;51.188;3.242;2024-01-16T03:17:20;1.80;81.50
84298;DHT22;74466;51.188;3.242;2024-01-16T03:19:46;1.70;81.40
84298;DHT22;74466;51.188;3.242;2024-01-16T03:22:12;1.80;81.50
84298;DHT22;74466;51.188;3.242;2024-01-16T03:24:38;1.80;81.50
84298;DHT22;74466;51.188;3.242;2024-01-16T03:27:04;1.80;81.20
84298;DHT22;74466;51.188;3.242;2024-01-16T03:29:30;1.70;81.20
84298;DHT22;74466;51.188;3.242;2024-01-16T03:31:56;1.70;81.40
84298;DHT22;74466;51.188;3.242;2024-01-16T03:34:23;1.60;81.20
84298;DHT22;74466;51.188;3.242;2024-01-16T03:36:49;1.60;81.10
84298;DHT22;74466;51.188;3.242;2024-01-16T03:39:14;1.60;81.20
84298;DHT22;74466;51.188;3.242;2024-01-16T03:41:40;1.60;81.50
84298;DHT22;74466;51.188;3.242;2024-01-16T03:44:06;1.60;81.60
84298;DHT22;74466;51.188;3.242;2024-01-16T03:46:31;1.70;81.50
84298;DHT22;74466;51.188;3.242;2024-01-16T03:48:57;1.70;81.40
84298;DHT22;74466;51.188;3.242;2024-01-16T03:51:23;1.70;81.10
84298;DHT22;74466;51.188;3.242;2024-01-16T03:53:48;1.80;81.00
84298;DHT22;74466;51.188;3.242;2024-01-16T03:56:15;1.70;81.10
84298;DHT22;74466;51.188;3.242;2024-01-16T03:58:42;1.70;81.10
84298;DHT22;74466;51.188;3.242;2024-01-16T04:01:08;1.70;81.40
84298;DHT22;74466;51.188;3.242;2024-01-16T04:03:34;1.70;81.20
84298;DHT22;74466;51.188;3.242;2024-01-16T04:06:04;1.60;81.60
84298;DHT22;74466;51.188;3.242;2024-01-16T04:08:39;1.60;81.40
84298;DHT22;74466;51.188;3.242;2024-01-16T04:11:04;1.60;81.50
84298;DHT22;74466;51.188;3.242;2024-01-16T04:13:30;1.50;81.90
84298;DHT22;74466;51.188;3.242;2024-01-16T04:15:56;1.50;81.70
84298;DHT22;74466;51.188;3.242;2024-01-16T04:18:21;1.50;81.70
84298;DHT22;74466;51.188;3.242;2024-01-16T04:20:47;1.30;81.90
84298;DHT22;74466;51.188;3.242;2024-01-16T04:23:13;1.40;81.80
84298;DHT22;74466;51.188;3.242;2024-01-16T04:25:38;1.50;81.90
84298;DHT22;74466;51.188;3.242;2024-01-16T04:28:04;1.50;81.70
84298;DHT22;74466;51.188;3.242;2024-01-16T04:30:30;1.40;81.40
84298;DHT22;74466;51.188;3.242;2024-01-16T04:32:56;1.40;81.90
84298;DHT22;74466;51.188;3.242;2024-01-16T04:35:21;1.30;81.50
84298;DHT22;74466;51.188;3.242;2024-01-16T04:37:47;1.20;81.50
84298;DHT22;74466;51.188;3.242;2024-01-16T04:40:13;1.30;82.00
84298;DHT22;74466;51.188;3.242;2024-01-16T04:42:39;1.30;81.90
84298;DHT22;74466;51.188;3.242;2024-01-16T04:45:05;1.30;81.70
84298;DHT22;74466;51.188;3.242;2024-01-16T04:47:31;1.30;81.50
84298;DHT22;74466;51.188;3.242;2024-01-16T04:49:56;1.20;81.40
84298;DHT22;74466;51.188;3.242;2024-01-16T04:52:22;1.10;81.70
84298;DHT22;74466;51.188;3.242;2024-01-16T04:54:48;1.00;82.10
84298;DHT22;74466;51.188;3.242;2024-01-16T04:57:13;1.00;82.20
84298;DHT22;74466;51.188;3.242;2024-01-16T04:59:39;0.90;82.70
84298;DHT22;74466;51.188;3.242;2024-01-16T05:02:05;0.90;82.50
84298;DHT22;74466;51.188;3.242;2024-01-16T05:04:30;0.90;82.50
84298;DHT22;74466;51.188;3.242;2024-01-16T05:06:56;0.80;82.20
84298;DHT22;74466;51.188;3.242;2024-01-16T05:09:22;0.80;82.80
84298;DHT22;74466;51.188;3.242;2024-01-16T05:11:48;0.70;82.70
84298;DHT22;74466;51.188;3.242;2024-01-16T05:14:14;0.70;82.90
84298;DHT22;74466;51.188;3.242;2024-01-16T05:16:40;0.70;83.00
84298;DHT22;74466;51.188;3.242;2024-01-16T05:19:06;0.70;82.60
84298;DHT22;74466;51.188;3.242;2024-01-16T05:21:32;0.80;82.40
84298;DHT22;74466;51.188;3.242;2024-01-16T05:23:57;0.70;82.30
84298;DHT22;74466;51.188;3.242;2024-01-16T05:26:23;0.60;82.70
84298;DHT22;74466;51.188;3.242;2024-01-16T05:28:49;0.60;82.70
84298;DHT22;74466;51.188;3.242;2024-01-16T05:31:14;0.50;83.00
84298;DHT22;74466;51.188;3.242;2024-01-16T05:33:41;0.60;83.00
84298;DHT22;74466;51.188;3.242;2024-01-16T05:36:06;0.60;83.40
84298;DHT22;74466;51.188;3.242;2024-01-16T05:38:32;0.60;83.10
84298;DHT22;74466;51.188;3.242;2024-01-16T05:40:59;0.60;83.60
84298;DHT22;74466;51.188;3.242;2024-01-16T05:43:24;0.70;83.30
84298;DHT22;74466;51.188;3.242;2024-01-16T05:45:50;0.60;83.00
84298;DHT22;74466;51.188;3.242;2024-01-16T05:48:17;0.70;82.90
84298;DHT22;74466;51.188;3.242;2024-01-16T05:50:42;0.70;82.90
84298;DHT22;74466;51.188;3.242;2024-01-16T05:53:08;0.80;82.80
84298;DHT22;74466;51.188;3.242;2024-01-16T05:55:34;0.80;82.40
84298;DHT22;74466;51.188;3.242;2024-01-16T05:58:02;0.80;82.10
84298;DHT22;74466;51.188;3.242;2024-01-16T06:00:28;0.70;82.20
84298;DHT22;74466;51.188;3.242;2024-01-16T06:02:54;0.60;82.30
84298;DHT22;74466;51.188;3.242;2024-01-16T06:05:20;0.60;82.40
84298;DHT22;74466;51.188;3.242;2024-01-16T06:07:46;0.60;82.40
84298;DHT22;74466;51.188;3.242;2024-01-16T06:10:12;0.70;82.40
84298;DHT22;74466;51.188;3.242;2024-01-16T06:12:39;0.70;81.80
84298;DHT22;74466;51.188;3.242;2024-01-16T06:15:05;0.70;81.30
84298;DHT22;74466;51.188;3.242;2024-01-16T06:17:31;0.80;81.20
84298;DHT22;74466;51.188;3.242;2024-01-16T06:19:57;0.70;82.00
84298;DHT22;74466;51.188;3.242;2024-01-16T06:22:23;0.70;81.70
84298;DHT22;74466;51.188;3.242;2024-01-16T06:24:48;0.70;81.90
84298;DHT22;74466;51.188;3.242;2024-01-16T06:27:14;0.70;81.50
84298;DHT22;74466;51.188;3.242;2024-01-16T06:29:48;0.70;81.40
84298;DHT22;74466;51.188;3.242;2024-01-16T06:32:14;0.60;80.80
84298;DHT22;74466;51.188;3.242;2024-01-16T06:34:39;0.70;81.40
84298;DHT22;74466;51.188;3.242;2024-01-16T06:37:06;0.70;81.00
84298;DHT22;74466;51.188;3.242;2024-01-16T06:39:32;0.70;81.40
84298;DHT22;74466;51.188;3.242;2024-01-16T06:41:58;0.70;81.30
84298;DHT22;74466;51.188;3.242;2024-01-16T06:44:24;0.70;80.90
84298;DHT22;74466;51.188;3.242;2024-01-16T06:46:50;0.70;80.80
84298;DHT22;74466;51.188;3.242;2024-01-16T06:49:15;0.70;81.30
84298;DHT22;74466;51.188;3.242;2024-01-16T06:51:41;0.70;81.00
84298;DHT22;74466;51.188;3.242;2024-01-16T06:54:07;0.70;80.40
84298;DHT22;74466;51.188;3.242;2024-01-16T06:56:33;0.80;80.40
84298;DHT22;74466;51.188;3.242;2024-01-16T06:58:58;0.90;79.70
84298;DHT22;74466;51.188;3.242;2024-01-16T07:01:24;0.90;78.70
84298;DHT22;74466;51.188;3.242;2024-01-16T07:03:50;0.90;78.50
84298;DHT22;74466;51.188;3.242;2024-01-16T07:06:16;0.90;78.10
84298;DHT22;74466;51.188;3.242;2024-01-16T07:08:41;1.00;78.00
84298;DHT22;74466;51.188;3.242;2024-01-16T07:11:07;1.00;76.90
84298;DHT22;74466;51.188;3.242;2024-01-16T07:13:34;1.10;76.50
84298;DHT22;74466;51.188;3.242;2024-01-16T07:16:00;1.00;77.10
84298;DHT22;74466;51.188;3.242;2024-01-16T07:18:27;1.10;77.10
84298;DHT22;74466;51.188;3.242;2024-01-16T07:20:53;1.10;76.80
84298;DHT22;74466;51.188;3.242;2024-01-16T07:23:19;1.20;76.10
84298;DHT22;74466;51.188;3.242;2024-01-16T07:25:45;1.10;75.30
84298;DHT22;74466;51.188;3.242;2024-01-16T07:28:11;1.10;75.10
84298;DHT22;74466;51.188;3.242;2024-01-16T07:30:36;1.20;75.50
84298;DHT22;74466;51.188;3.242;2024-01-16T07:33:03;1.20;75.00
84298;DHT22;74466;51.188;3.242;2024-01-16T07:35:29;1.30;74.80
84298;DHT22;74466;51.188;3.242;2024-01-16T07:37:55;1.20;73.80
84298;DHT22;74466;51.188;3.242;2024-01-16T07:40:20;1.20;73.90
84298;DHT22;74466;51.188;3.242;2024-01-16T07:42:46;1.20;73.90
84298;DHT22;74466;51.188;3.242;2024-01-16T07:45:12;1.20;74.40
84298;DHT22;74466;51.188;3.242;2024-01-16T07:47:37;1.20;74.40
84298;DHT22;74466;51.188;3.242;2024-01-16T07:50:03;1.20;74.50
84298;DHT22;74466;51.188;3.242;2024-01-16T07:52:29;1.30;74.40
84298;DHT22;74466;51.188;3.242;2024-01-16T07:54:55;1.20;74.70
84298;DHT22;74466;51.188;3.242;2024-01-16T07:57:20;1.20;73.90
84298;DHT22;74466;51.188;3.242;2024-01-16T07:59:46;1.30;74.80
84298;DHT22;74466;51.188;3.242;2024-01-16T08:02:12;1.30;74.30
84298;DHT22;74466;51.188;3.242;2024-01-16T08:04:38;1.40;74.00
84298;DHT22;74466;51.188;3.242;2024-01-16T08:07:04;1.30;73.70
84298;DHT22;74466;51.188;3.242;2024-01-16T08:09:29;1.30;73.70
84298;DHT22;74466;51.188;3.242;2024-01-16T08:11:55;1.30;74.20
84298;DHT22;74466;51.188;3.242;2024-01-16T08:14:20;1.30;74.30
84298;DHT22;74466;51.188;3.242;2024-01-16T08:16:46;1.30;74.60
84298;DHT22;74466;51.188;3.242;2024-01-16T08:19:13;1.20;74.30
84298;DHT22;74466;51.188;3.242;2024-01-16T08:21:40;1.20;74.30
84298;DHT22;74466;51.188;3.242;2024-01-16T08:24:05;1.20;75.50
84298;DHT22;74466;51.188;3.242;2024-01-16T08:26:31;1.10;75.40
84298;DHT22;74466;51.188;3.242;2024-01-16T08:28:57;1.10;75.80
84298;DHT22;74466;51.188;3.242;2024-01-16T08:31:23;1.10;75.40
84298;DHT22;74466;51.188;3.242;2024-01-16T08:33:49;1.00;75.70
84298;DHT22;74466;51.188;3.242;2024-01-16T08:36:15;1.00;76.30
84298;DHT22;74466;51.188;3.242;2024-01-16T08:38:40;1.10;76.10
84298;DHT22;74466;51.188;3.242;2024-01-16T08:41:06;1.00;75.50
84298;DHT22;74466;51.188;3.242;2024-01-16T08:43:34;1.10;76.00
84298;DHT22;74466;51.188;3.242;2024-01-16T08:46:00;1.20;75.50
84298;DHT22;74466;51.188;3.242;2024-01-16T08:48:26;1.20;75.70
84298;DHT22;74466;51.188;3.242;2024-01-16T08:50:52;1.20;75.20
84298;DHT22;74466;51.188;3.242;2024-01-16T08:53:20;1.20;75.20
84298;DHT22;74466;51.188;3.242;2024-01-16T08:55:48;1.10;75.30
84298;DHT22;74466;51.188;3.242;2024-01-16T08:58:14;1.20;75.60
84298;DHT22;74466;51.188;3.242;2024-01-16T09:00:40;1.20;75.90
84298;DHT22;74466;51.188;3.242;2024-01-16T09:03:06;1.20;75.10
84298;DHT22;74466;51.188;3.242;2024-01-16T09:05:33;1.30;75.40
84298;DHT22;74466;51.188;3.242;2024-01-16T09:08:01;1.30;75.20
84298;DHT22;74466;51.188;3.242;2024-01-16T09:10:28;1.40;75.00
84298;DHT22;74466;51.188;3.242;2024-01-16T09:12:55;1.40;75.20
84298;DHT22;74466;51.188;3.242;2024-01-16T09:15:20;1.70;74.10
84298;DHT22;74466;51.188;3.242;2024-01-16T09:17:46;2.10;75.00
84298;DHT22;74466;51.188;3.242;2024-01-16T09:20:12;2.60;72.40
84298;DHT22;74466;51.188;3.242;2024-01-16T09:22:39;2.90;71.00
84298;DHT22;74466;51.188;3.242;2024-01-16T09:25:05;3.10;70.60
84298;DHT22;74466;51.188;3.242;2024-01-16T09:27:31;3.10;70.40
84298;DHT22;74466;51.188;3.242;2024-01-16T09:29:57;3.00;70.10
84298;DHT22;74466;51.188;3.242;2024-01-16T09:32:23;2.90;69.80
84298;DHT22;74466;51.188;3.242;2024-01-16T09:34:49;3.00;69.50
84298;DHT22;74466;51.188;3.242;2024-01-16T09:37:14;2.80;69.90
84298;DHT22;74466;51.188;3.242;2024-01-16T09:39:41;2.80;70.30
84298;DHT22;74466;51.188;3.242;2024-01-16T09:42:06;2.90;71.00
84298;DHT22;74466;51.188;3.242;2024-01-16T09:44:32;2.80;70.00
84298;DHT22;74466;51.188;3.242;2024-01-16T09:47:01;2.90;70.10
84298;DHT22;74466;51.188;3.242;2024-01-16T09:49:28;3.10;71.20
84298;DHT22;74466;51.188;3.242;2024-01-16T09:51:54;3.30;71.00
84298;DHT22;74466;51.188;3.242;2024-01-16T09:54:20;3.50;70.10
84298;DHT22;74466;51.188;3.242;2024-01-16T09:56:48;3.70;69.10
84298;DHT22;74466;51.188;3.242;2024-01-16T09:59:17;3.80;68.80
84298;DHT22;74466;51.188;3.242;2024-01-16T10:01:48;3.90;68.20
84298;DHT22;74466;51.188;3.242;2024-01-16T10:04:15;4.00;68.10
84298;DHT22;74466;51.188;3.242;2024-01-16T10:06:41;4.20;67.90
84298;DHT22;74466;51.188;3.242;2024-01-16T10:09:11;4.30;68.20
84298;DHT22;74466;51.188;3.242;2024-01-16T10:11:38;4.40;67.10
84298;DHT22;74466;51.188;3.242;2024-01-16T10:14:03;4.50;66.90
84298;DHT22;74466;51.188;3.242;2024-01-16T10:19:23;4.40;66.60
84298;DHT22;74466;51.188;3.242;2024-01-16T10:21:50;4.50;66.00
84298;DHT22;74466;51.188;3.242;2024-01-16T10:24:16;4.50;66.00
84298;DHT22;74466;51.188;3.242;2024-01-16T10:26:41;4.60;65.70
84298;DHT22;74466;51.188;3.242;2024-01-16T10:29:07;4.50;65.30
84298;DHT22;74466;51.188;3.242;2024-01-16T10:31:34;4.40;66.60
84298;DHT22;74466;51.188;3.242;2024-01-16T10:34:00;4.40;66.10
84298;DHT22;74466;51.188;3.242;2024-01-16T10:36:26;4.40;66.10
84298;DHT22;74466;51.188;3.242;2024-01-16T10:39:03;4.40;66.20
84298;DHT22;74466;51.188;3.242;2024-01-16T10:41:28;4.40;66.40
84298;DHT22;74466;51.188;3.242;2024-01-16T10:44:04;4.40;66.10
84298;DHT22;74466;51.188;3.242;2024-01-16T10:46:32;4.50;65.50
84298;DHT22;74466;51.188;3.242;2024-01-16T10:49:04;4.60;66.50
84298;DHT22;74466;51.188;3.242;2024-01-16T10:51:31;4.70;64.60
84298;DHT22;74466;51.188;3.242;2024-01-16T10:54:02;4.80;63.60
84298;DHT22;74466;51.188;3.242;2024-01-16T10:56:31;4.80;63.90
84298;DHT22;74466;51.188;3.242;2024-01-16T10:59:09;4.70;63.60
84298;DHT22;74466;51.188;3.242;2024-01-16T11:01:37;4.60;64.80
84298;DHT22;74466;51.188;3.242;2024-01-16T11:04:05;4.60;65.00
84298;DHT22;74466;51.188;3.242;2024-01-16T11:06:32;4.60;65.40
84298;DHT22;74466;51.188;3.242;2024-01-16T11:08:57;4.80;65.40
84298;DHT22;74466;51.188;3.242;2024-01-16T11:11:26;4.90;65.30
84298;DHT22;74466;51.188;3.242;2024-01-16T11:13:54;4.90;62.80
84298;DHT22;74466;51.188;3.242;2024-01-16T11:16:22;4.60;64.00
84298;DHT22;74466;51.188;3.242;2024-01-16T11:18:48;4.70;64.10
84298;DHT22;74466;51.188;3.242;2024-01-16T11:21:15;4.90;64.90
84298;DHT22;74466;51.188;3.242;2024-01-16T11:23:41;4.90;63.00
84298;DHT22;74466;51.188;3.242;2024-01-16T11:28:58;5.00;66.20
84298;DHT22;74466;51.188;3.242;2024-01-16T11:31:31;5.00;66.50
84298;DHT22;74466;51.188;3.242;2024-01-16T11:33:57;4.90;66.20
84298;DHT22;74466;51.188;3.242;2024-01-16T11:36:50;5.00;67.50
84298;DHT22;74466;51.188;3.242;2024-01-16T11:39:26;5.00;67.40
84298;DHT22;74466;51.188;3.242;2024-01-16T11:41:55;5.20;68.00
84298;DHT22;74466;51.188;3.242;2024-01-16T11:44:40;5.30;66.10
84298;DHT22;74466;51.188;3.242;2024-01-16T11:47:18;5.30;66.60
84298;DHT22;74466;51.188;3.242;2024-01-16T11:49:46;5.40;66.60
84298;DHT22;74466;51.188;3.242;2024-01-16T11:52:11;5.40;67.60
84298;DHT22;74466;51.188;3.242;2024-01-16T11:54:39;5.50;66.50
84298;DHT22;74466;51.188;3.242;2024-01-16T12:00:04;5.50;66.10
84298;DHT22;74466;51.188;3.242;2024-01-16T12:02:53;5.40;66.30
84298;DHT22;74466;51.188;3.242;2024-01-16T12:05:20;5.50;67.50
84298;DHT22;74466;51.188;3.242;2024-01-16T12:07:51;5.60;65.50
84298;DHT22;74466;51.188;3.242;2024-01-16T12:10:19;5.70;66.20
84298;DHT22;74466;51.188;3.242;2024-01-16T12:12:46;5.60;67.40
84298;DHT22;74466;51.188;3.242;2024-01-16T12:15:19;5.70;65.00
84298;DHT22;74466;51.188;3.242;2024-01-16T12:17:57;5.90;64.60
84298;DHT22;74466;51.188;3.242;2024-01-16T12:20:25;5.80;64.10
84298;DHT22;74466;51.188;3.242;2024-01-16T12:23:04;5.80;67.50
84298;DHT22;74466;51.188;3.242;2024-01-16T12:25:33;5.80;65.00
84298;DHT22;74466;51.188;3.242;2024-01-16T12:28:07;5.90;64.40
84298;DHT22;74466;51.188;3.242;2024-01-16T12:30:37;5.80;65.60
84298;DHT22;74466;51.188;3.242;2024-01-16T12:33:13;5.90;64.30
84298;DHT22;74466;51.188;3.242;2024-01-16T12:35:41;5.80;63.60
84298;DHT22;74466;51.188;3.242;2024-01-16T12:38:11;5.90;64.70
84298;DHT22;74466;51.188;3.242;2024-01-16T12:40:44;5.80;65.20
84298;DHT22;74466;51.188;3.242;2024-01-16T12:43:10;5.80;64.10
84298;DHT22;74466;51.188;3.242;2024-01-16T12:45:35;5.70;66.20
84298;DHT22;74466;51.188;3.242;2024-01-16T12:48:02;5.70;64.60
84298;DHT22;74466;51.188;3.242;2024-01-16T12:50:32;5.80;63.40
84298;DHT22;74466;51.188;3.242;2024-01-16T12:55:26;5.80;62.50
84298;DHT22;74466;51.188;3.242;2024-01-16T12:58:13;5.80;63.00
84298;DHT22;74466;51.188;3.242;2024-01-16T13:00:39;5.90;63.70
84298;DHT22;74466;51.188;3.242;2024-01-16T13:03:06;6.00;63.00
84298;DHT22;74466;51.188;3.242;2024-01-16T13:05:31;6.00;62.50
84298;DHT22;74466;51.188;3.242;2024-01-16T13:08:01;6.00;62.20
84298;DHT22;74466;51.188;3.242;2024-01-16T13:10:28;6.00;61.80
84298;DHT22;74466;51.188;3.242;2024-01-16T13:13:12;6.00;61.90
84298;DHT22;74466;51.188;3.242;2024-01-16T13:15:39;5.90;62.00
84298;DHT22;74466;51.188;3.242;2024-01-16T13:18:05;6.00;62.80
84298;DHT22;74466;51.188;3.242;2024-01-16T13:20:32;6.20;62.50
84298;DHT22;74466;51.188;3.242;2024-01-16T13:22:57;6.00;61.70
84298;DHT22;74466;51.188;3.242;2024-01-16T13:25:23;6.00;62.40
84298;DHT22;74466;51.188;3.242;2024-01-16T13:27:49;5.80;62.40
84298;DHT22;74466;51.188;3.242;2024-01-16T13:30:15;5.80;62.50
84298;DHT22;74466;51.188;3.242;2024-01-16T13:32:42;5.90;63.10
84298;DHT22;74466;51.188;3.242;2024-01-16T13:35:08;6.10;63.00
84298;DHT22;74466;51.188;3.242;2024-01-16T13:37:34;6.20;61.80
84298;DHT22;74466;51.188;3.242;2024-01-16T13:40:04;6.30;62.00
84298;DHT22;74466;51.188;3.242;2024-01-16T13:42:34;6.00;62.40
84298;DHT22;74466;51.188;3.242;2024-01-16T13:45:00;6.00;62.90
84298;DHT22;74466;51.188;3.242;2024-01-16T13:47:26;6.00;62.00
84298;DHT22;74466;51.188;3.242;2024-01-16T13:49:52;6.10;61.30
84298;DHT22;74466;51.188;3.242;2024-01-16T13:52:18;5.90;61.30
84298;DHT22;74466;51.188;3.242;2024-01-16T13:54:44;5.80;61.60
84298;DHT22;74466;51.188;3.242;2024-01-16T13:57:10;5.80;61.60
84298;DHT22;74466;51.188;3.242;2024-01-16T13:59:36;5.60;61.80
84298;DHT22;74466;51.188;3.242;2024-01-16T14:02:03;5.70;62.50
84298;DHT22;74466;51.188;3.242;2024-01-16T14:04:30;5.90;62.30
84298;DHT22;74466;51.188;3.242;2024-01-16T14:06:56;5.90;61.60
84298;DHT22;74466;51.188;3.242;2024-01-16T14:09:22;6.00;61.70
84298;DHT22;74466;51.188;3.242;2024-01-16T14:11:48;6.00;60.80
84298;DHT22;74466;51.188;3.242;2024-01-16T14:14:14;6.00;61.00
84298;DHT22;74466;51.188;3.242;2024-01-16T14:16:40;6.00;60.40
84298;DHT22;74466;51.188;3.242;2024-01-16T14:19:05;5.90;60.80
84298;DHT22;74466;51.188;3.242;2024-01-16T14:21:31;5.80;60.70
84298;DHT22;74466;51.188;3.242;2024-01-16T14:23:57;5.90;61.70
84298;DHT22;74466;51.188;3.242;2024-01-16T14:26:23;6.00;61.50
84298;DHT22;74466;51.188;3.242;2024-01-16T14:28:48;5.80;61.20
84298;DHT22;74466;51.188;3.242;2024-01-16T14:31:15;5.90;61.70
84298;DHT22;74466;51.188;3.242;2024-01-16T14:33:41;5.90;63.80
84298;DHT22;74466;51.188;3.242;2024-01-16T14:36:07;5.90;68.30
84298;DHT22;74466;51.188;3.242;2024-01-16T14:38:33;5.80;68.20
84298;DHT22;74466;51.188;3.242;2024-01-16T14:40:59;5.80;72.30
84298;DHT22;74466;51.188;3.242;2024-01-16T14:43:25;5.80;73.00
84298;DHT22;74466;51.188;3.242;2024-01-16T14:45:50;5.80;70.70
84298;DHT22;74466;51.188;3.242;2024-01-16T14:48:16;5.80;73.80
84298;DHT22;74466;51.188;3.242;2024-01-16T14:50:42;5.80;72.60
84298;DHT22;74466;51.188;3.242;2024-01-16T14:53:08;5.90;70.60
84298;DHT22;74466;51.188;3.242;2024-01-16T14:55:34;5.80;71.70
84298;DHT22;74466;51.188;3.242;2024-01-16T14:58:00;5.80;69.90
84298;DHT22;74466;51.188;3.242;2024-01-16T15:00:26;5.70;66.30
84298;DHT22;74466;51.188;3.242;2024-01-16T15:02:55;5.70;65.50
84298;DHT22;74466;51.188;3.242;2024-01-16T15:05:22;5.60;62.90
84298;DHT22;74466;51.188;3.242;2024-01-16T15:07:49;5.70;61.80
84298;DHT22;74466;51.188;3.242;2024-01-16T15:10:16;5.50;61.90
84298;DHT22;74466;51.188;3.242;2024-01-16T15:12:46;5.50;62.50
84298;DHT22;74466;51.188;3.242;2024-01-16T15:15:14;5.40;62.40
84298;DHT22;74466;51.188;3.242;2024-01-16T15:17:41;5.30;62.20
84298;DHT22;74466;51.188;3.242;2024-01-16T15:20:08;5.30;62.00
84298;DHT22;74466;51.188;3.242;2024-01-16T15:22:42;5.10;61.50
84298;DHT22;74466;51.188;3.242;2024-01-16T15:25:12;4.90;62.60
84298;DHT22;74466;51.188;3.242;2024-01-16T15:27:42;4.70;61.60
84298;DHT22;74466;51.188;3.242;2024-01-16T15:30:09;4.60;61.70
84298;DHT22;74466;51.188;3.242;2024-01-16T15:32:36;4.50;61.40
84298;DHT22;74466;51.188;3.242;2024-01-16T15:35:03;4.40;61.30
84298;DHT22;74466;51.188;3.242;2024-01-16T15:37:33;4.40;61.10
84298;DHT22;74466;51.188;3.242;2024-01-16T15:39:59;4.30;61.50
84298;DHT22;74466;51.188;3.242;2024-01-16T15:42:25;4.30;61.70
84298;DHT22;74466;51.188;3.242;2024-01-16T15:44:52;4.30;62.70
84298;DHT22;74466;51.188;3.242;2024-01-16T15:47:21;4.10;61.60
84298;DHT22;74466;51.188;3.242;2024-01-16T15:49:46;4.10;61.20
84298;DHT22;74466;51.188;3.242;2024-01-16T15:52:13;4.20;63.50
84298;DHT22;74466;51.188;3.242;2024-01-16T15:54:42;4.10;62.80